Time;durP1;ratioP1;P1;durP2;ratioP2;P2;SDS_P1;SDS_P2;PMS_P1;PMS_P2;Temp;Humidity;BMP_temperature;BMP_pressure;BME280_temperature;BME280_humidity;BME280_pressure;Samples;Min_cycle;Max_cycle;Signal;HPM_P1;HPM_P2
2023/08/12 00:00:19;;;;;;;7.10;3.50;;;19.80;99.90;;;19.81;100.00;97533.94;5033031;28;20513;-36
2023/08/12 00:02:46;;;;;;;4.43;3.20;;;19.90;99.90;;;19.82;100.00;97530.28;5036001;28;20037;-37
2023/08/12 00:05:12;;;;;;;3.95;3.15;;;19.90;99.90;;;19.79;100.00;97529.66;5032200;28;20033;-36
2023/08/12 00:07:42;;;;;;;4.45;3.35;;;19.80;99.90;;;19.75;100.00;97529.00;5035281;28;20042;-36
2023/08/12 00:10:10;;;;;;;3.75;3.33;;;19.80;99.90;;;19.73;100.00;97530.06;5037534;28;20029;-36
2023/08/12 00:12:37;;;;;;;4.00;3.17;;;19.80;99.90;;;19.73;100.00;97522.03;5039236;28;20107;-36
2023/08/12 00:15:06;;;;;;;3.70;3.40;;;19.80;99.90;;;19.73;100.00;97527.41;5033073;28;20030;-36
2023/08/12 00:17:32;;;;;;;4.25;3.40;;;19.80;99.90;;;19.66;100.00;97513.59;5033269;28;20033;-36
2023/08/12 00:19:58;;;;;;;4.13;3.53;;;19.80;99.90;;;19.68;100.00;97518.84;5036808;28;20071;-36
2023/08/12 00:22:24;;;;;;;3.65;3.28;;;19.70;99.90;;;19.62;100.00;97515.63;5034968;28;20405;-36
2023/08/12 00:24:51;;;;;;;3.83;3.40;;;19.70;99.90;;;19.58;100.00;97519.50;5034654;28;20048;-37
2023/08/12 00:27:17;;;;;;;5.40;4.00;;;19.60;99.90;;;19.52;100.00;97509.22;5037252;28;20033;-37
2023/08/12 00:29:43;;;;;;;3.95;3.50;;;19.60;99.90;;;19.49;100.00;97500.56;5037013;28;20024;-36
2023/08/12 00:32:09;;;;;;;4.72;3.83;;;19.50;99.90;;;19.44;100.00;97503.59;5030292;28;20091;-36
2023/08/12 00:34:35;;;;;;;5.13;3.70;;;19.50;99.90;;;19.37;100.00;97513.00;5036540;28;20083;-36
2023/08/12 00:37:00;;;;;;;5.07;3.78;;;19.40;99.90;;;19.33;100.00;97507.03;5030985;28;20638;-36
2023/08/12 00:39:26;;;;;;;4.20;3.72;;;19.40;99.90;;;19.28;100.00;97503.81;5030822;28;20635;-36
2023/08/12 00:41:52;;;;;;;5.43;3.88;;;19.30;99.90;;;19.21;100.00;97498.03;5033882;28;20029;-36
2023/08/12 00:44:18;;;;;;;5.55;4.10;;;19.20;99.90;;;19.16;100.00;97494.84;5038520;28;20091;-36
2023/08/12 00:46:44;;;;;;;5.30;4.25;;;19.20;99.90;;;19.05;100.00;97484.91;5035236;28;20082;-36
2023/08/12 00:49:11;;;;;;;7.22;4.10;;;19.10;99.90;;;19.05;100.00;97490.25;5034084;28;20036;-36
2023/08/12 00:51:41;;;;;;;6.22;4.55;;;19.10;99.90;;;19.01;100.00;97493.25;5037968;28;20030;-36
2023/08/12 00:54:08;;;;;;;5.22;3.60;;;19.00;99.90;;;18.96;100.00;97492.72;5038058;28;20037;-36
2023/08/12 00:56:35;;;;;;;6.45;4.60;;;19.00;99.90;;;18.91;100.00;97485.00;5034682;28;20029;-36
2023/08/12 00:59:04;;;;;;;6.43;4.07;;;19.00;99.90;;;18.87;100.00;97492.38;5036452;28;20126;-36
2023/08/12 01:01:30;;;;;;;7.00;3.88;;;18.90;99.90;;;18.78;100.00;97473.44;5029841;28;20834;-36
2023/08/12 01:03:57;;;;;;;5.32;4.10;;;18.90;99.90;;;18.79;100.00;97481.34;5033542;28;20094;-36
2023/08/12 01:06:23;;;;;;;5.47;3.92;;;18.80;99.90;;;18.73;100.00;97476.41;5025016;28;20275;-36
2023/08/12 01:08:49;;;;;;;4.82;3.85;;;18.80;99.90;;;18.72;100.00;97479.19;5037280;28;20555;-36
2023/08/12 01:11:30;;;;;;;6.38;4.35;;;18.80;99.90;;;18.68;100.00;97474.06;5034045;28;20033;-36
2023/08/12 01:14:23;;;;;;;6.05;3.92;;;18.70;99.90;;;18.65;100.00;97476.09;5031513;28;20040;-36
2023/08/12 01:16:54;;;;;;;7.70;4.85;;;18.70;99.90;;;18.63;100.00;97478.03;5033932;28;20064;-36
2023/08/12 01:19:39;;;;;;;5.70;4.70;;;18.70;99.90;;;18.59;100.00;97471.16;5032383;28;20079;-36
2023/08/12 01:22:10;;;;;;;6.78;4.97;;;18.60;99.90;;;18.49;100.00;97455.78;5031506;28;20029;-36
2023/08/12 01:24:38;;;;;;;5.32;4.45;;;18.60;99.90;;;18.55;100.00;97469.66;5035917;28;20450;-36
2023/08/12 01:27:06;;;;;;;5.93;4.30;;;18.60;99.90;;;18.58;100.00;97466.78;5033768;28;20652;-36
2023/08/12 01:29:33;;;;;;;8.18;4.32;;;18.60;99.90;;;18.61;100.00;97458.56;5034763;28;20626;-36
2023/08/12 01:32:13;;;;;;;5.35;4.40;;;18.70;99.90;;;18.66;100.00;97454.63;5031648;28;20077;-36
2023/08/12 01:34:51;;;;;;;5.32;3.90;;;18.70;99.90;;;18.56;100.00;97437.53;5028847;28;20033;-36
2023/08/12 01:37:28;;;;;;;5.55;4.10;;;18.70;99.90;;;18.63;100.00;97452.16;5036538;28;20051;-36
2023/08/12 01:39:55;;;;;;;5.25;4.50;;;18.70;99.90;;;18.61;100.00;97447.88;5033609;28;20029;-36
2023/08/12 01:42:21;;;;;;;5.13;3.95;;;18.90;99.90;;;18.50;100.00;97428.13;5033721;28;20409;-36
2023/08/12 01:44:48;;;;;;;6.80;4.70;;;18.90;99.90;;;18.50;100.00;97436.13;5017943;28;20255;-36
2023/08/12 01:47:13;;;;;;;5.50;4.10;;;18.80;99.90;;;18.55;100.00;97448.31;5038529;28;20471;-36
2023/08/12 01:49:39;;;;;;;4.55;4.13;;;18.60;99.90;;;18.53;100.00;97432.38;5042165;28;20029;-36
2023/08/12 01:52:05;;;;;;;5.05;3.90;;;18.90;99.90;;;18.53;100.00;97444.88;5042005;28;20037;-36
2023/08/12 01:54:34;;;;;;;4.88;3.55;;;18.60;99.90;;;18.51;100.00;97443.16;5044379;28;20037;-36
2023/08/12 01:57:08;;;;;;;4.32;3.60;;;18.60;99.90;;;18.52;100.00;97444.03;5040625;28;20037;-36
2023/08/12 01:59:34;;;;;;;5.00;4.05;;;18.60;99.90;;;18.52;100.00;97433.34;5041024;28;20032;-36
2023/08/12 02:02:00;;;;;;;4.75;3.92;;;18.60;99.90;;;18.57;100.00;97439.22;5039343;28;20159;-36
2023/08/12 02:04:26;;;;;;;4.85;3.80;;;18.70;99.90;;;18.61;100.00;97446.06;5041974;28;20078;-36
2023/08/12 02:06:53;;;;;;;4.95;3.70;;;18.70;99.90;;;18.63;100.00;97446.81;5034318;28;20025;-36
2023/08/12 02:09:19;;;;;;;5.03;3.80;;;18.70;99.90;;;18.68;100.00;97444.69;5034980;28;20467;-36
2023/08/12 02:11:44;;;;;;;5.30;4.13;;;18.80;99.90;;;18.73;100.00;97448.84;5036434;28;20021;-36
2023/08/12 02:14:10;;;;;;;5.10;3.85;;;18.80;99.90;;;18.79;100.00;97451.09;5044439;28;20024;-36
2023/08/12 02:16:36;;;;;;;5.13;4.05;;;18.80;99.90;;;18.83;100.00;97445.47;5038173;28;20218;-36
2023/08/12 02:19:02;;;;;;;4.90;3.88;;;18.90;99.90;;;18.88;100.00;97443.34;5021233;28;20029;-36
2023/08/12 02:21:28;;;;;;;5.32;4.00;;;19.00;99.90;;;18.97;100.00;97443.63;5034207;28;20035;-36
2023/08/12 02:23:53;;;;;;;5.32;4.05;;;19.00;99.90;;;19.01;100.00;97432.63;5035023;28;20957;-36
2023/08/12 02:26:19;;;;;;;5.47;4.05;;;19.10;99.90;;;19.09;100.00;97437.41;5036141;28;20028;-36
2023/08/12 02:28:45;;;;;;;5.30;4.28;;;19.20;99.90;;;19.15;100.00;97437.00;5032324;28;20402;-36
2023/08/12 02:31:10;;;;;;;5.32;3.97;;;19.20;99.90;;;19.21;100.00;97438.38;5032062;28;20033;-36
2023/08/12 02:33:36;;;;;;;6.30;4.07;;;19.30;99.90;;;19.24;100.00;97436.34;5030827;28;20052;-36
2023/08/12 02:36:02;;;;;;;4.93;3.75;;;19.30;99.90;;;19.27;100.00;97421.88;5033060;28;20041;-36
2023/08/12 02:38:28;;;;;;;5.25;4.40;;;19.30;99.90;;;19.27;100.00;97427.22;5032635;28;20488;-36
2023/08/12 02:40:53;;;;;;;4.47;4.03;;;19.30;99.90;;;19.26;100.00;97421.03;5032836;28;20061;-36
2023/08/12 02:43:19;;;;;;;4.70;3.78;;;19.30;99.90;;;19.24;100.00;97416.78;5036056;28;20029;-36
2023/08/12 02:45:45;;;;;;;4.85;3.95;;;19.30;99.90;;;19.24;100.00;97411.44;5032533;28;20404;-36
2023/08/12 02:48:11;;;;;;;5.38;3.97;;;19.30;99.90;;;19.23;100.00;97421.25;5032302;28;20025;-36
2023/08/12 02:50:38;;;;;;;4.35;3.92;;;19.30;99.90;;;19.26;100.00;97417.53;5031153;28;20029;-36
2023/08/12 02:53:04;;;;;;;5.47;4.35;;;19.30;99.90;;;19.26;100.00;97422.88;5032190;28;20044;-36
2023/08/12 02:55:31;;;;;;;5.18;3.80;;;19.30;99.90;;;19.22;100.00;97413.34;5032890;28;20044;-36
2023/08/12 02:57:58;;;;;;;4.47;3.80;;;19.30;99.90;;;19.26;100.00;97429.06;5028427;28;20053;-36
2023/08/12 03:00:24;;;;;;;4.63;3.58;;;19.30;99.90;;;19.26;100.00;97425.53;5029601;28;20198;-36
2023/08/12 03:02:49;;;;;;;5.00;3.70;;;19.30;99.90;;;19.27;100.00;97424.56;5037273;28;20481;-36
2023/08/12 03:05:15;;;;;;;4.82;3.88;;;19.30;99.90;;;19.29;100.00;97419.09;5034746;28;20053;-36
2023/08/12 03:07:41;;;;;;;5.18;4.05;;;19.30;99.90;;;19.30;100.00;97415.47;5029918;28;20367;-36
2023/08/12 03:10:07;;;;;;;4.45;3.70;;;19.30;99.90;;;19.24;100.00;97408.75;5032137;28;20021;-36
2023/08/12 03:12:34;;;;;;;4.35;3.70;;;19.40;99.90;;;19.32;100.00;97416.22;5038808;28;20032;-36
2023/08/12 03:15:01;;;;;;;5.43;3.72;;;19.40;99.90;;;19.31;100.00;97403.81;5038353;28;20052;-36
2023/08/12 03:17:26;;;;;;;4.88;3.92;;;19.40;99.90;;;19.33;100.00;97413.44;5039056;28;20397;-36
2023/08/12 03:19:54;;;;;;;5.63;3.40;;;19.40;99.90;;;19.34;100.00;97400.91;5038740;28;20512;-36
2023/08/12 03:22:20;;;;;;;5.03;3.80;;;19.40;99.90;;;19.35;100.00;97408.84;5036714;28;20033;-36
2023/08/12 03:24:46;;;;;;;4.43;3.83;;;19.40;99.90;;;19.35;100.00;97408.84;5037566;28;20468;-36
2023/08/12 03:27:11;;;;;;;4.90;3.88;;;19.40;99.90;;;19.36;100.00;97402.53;5034322;28;20060;-36
2023/08/12 03:29:37;;;;;;;4.95;3.75;;;19.40;99.90;;;19.31;100.00;97402.00;5036382;28;20112;-36
2023/08/12 03:32:03;;;;;;;5.13;3.80;;;19.40;99.90;;;19.39;100.00;97409.47;5036079;28;20036;-36
2023/08/12 03:34:29;;;;;;;5.80;3.92;;;19.40;99.90;;;19.38;100.00;97403.28;5042103;28;20518;-36
2023/08/12 03:36:55;;;;;;;4.57;3.50;;;19.50;99.90;;;19.34;100.00;97393.75;5038767;28;20028;-36
2023/08/12 03:39:21;;;;;;;5.50;3.75;;;19.50;99.90;;;19.35;100.00;97397.28;5033465;28;20032;-36
2023/08/12 03:41:46;;;;;;;5.35;4.00;;;19.50;99.90;;;19.38;100.00;97402.41;5036017;28;20512;-36
2023/08/12 03:44:12;;;;;;;5.25;4.00;;;19.50;99.90;;;19.40;100.00;97400.50;5039024;28;20458;-36
2023/08/12 03:46:38;;;;;;;5.18;3.33;;;19.50;99.90;;;19.41;100.00;97399.50;5034198;28;20083;-36
2023/08/12 03:49:03;;;;;;;4.03;3.53;;;19.50;99.90;;;19.41;100.00;97403.03;5033498;28;20032;-36
2023/08/12 03:51:29;;;;;;;6.43;3.60;;;19.50;99.90;;;19.41;100.00;97415.56;5036122;28;20299;-36
2023/08/12 03:53:55;;;;;;;5.13;3.67;;;19.50;99.90;;;19.44;100.00;97412.66;5037909;28;20025;-36
2023/08/12 03:56:21;;;;;;;4.65;3.60;;;19.50;99.90;;;19.42;100.00;97409.25;5034422;28;20072;-36
2023/08/12 03:58:47;;;;;;;4.65;3.38;;;19.50;99.90;;;19.40;100.00;97412.03;5035904;28;20497;-36
2023/08/12 04:01:12;;;;;;;6.00;4.07;;;19.50;99.90;;;19.33;100.00;97402.75;5032696;28;20041;-36
2023/08/12 04:03:38;;;;;;;3.95;3.10;;;19.50;99.90;;;19.33;100.00;97399.22;5029335;28;20075;-36
2023/08/12 04:06:04;;;;;;;4.88;3.42;;;19.40;99.90;;;19.36;100.00;97415.91;5026579;28;20045;-36
2023/08/12 04:08:32;;;;;;;4.05;3.28;;;19.40;99.90;;;19.37;100.00;97414.06;5029704;28;20060;-36
2023/08/12 04:10:57;;;;;;;5.75;3.78;;;19.40;99.90;;;19.35;100.00;97406.16;5038465;28;20113;-36
2023/08/12 04:13:23;;;;;;;4.35;3.67;;;19.40;99.90;;;19.35;100.00;97411.50;5031686;28;20075;-36
2023/08/12 04:15:50;;;;;;;4.47;3.88;;;19.40;99.90;;;19.35;100.00;97416.84;5033617;28;20033;-36
2023/08/12 04:18:16;;;;;;;4.50;3.70;;;19.40;99.90;;;19.28;100.00;97399.53;5035823;28;20115;-36
2023/08/12 04:20:42;;;;;;;4.38;3.45;;;19.40;99.90;;;19.37;100.00;97420.28;5034526;28;20079;-36
2023/08/12 04:23:08;;;;;;;4.72;3.67;;;19.40;99.90;;;19.39;100.00;97421.00;5038225;28;20072;-36
2023/08/12 04:25:33;;;;;;;5.18;3.95;;;19.50;99.90;;;19.37;100.00;97430.97;5026328;28;20037;-36
2023/08/12 04:27:59;;;;;;;9.13;4.10;;;19.50;99.90;;;19.36;100.00;97426.59;5024973;28;20462;-36
2023/08/12 04:30:26;;;;;;;6.88;4.03;;;19.50;99.90;;;19.34;100.00;97443.69;5024337;28;20054;-36
2023/08/12 04:32:51;;;;;;;8.38;4.30;;;19.40;99.90;;;19.29;100.00;97441.38;5028087;28;20481;-36
2023/08/12 04:35:17;;;;;;;4.88;3.85;;;19.40;99.90;;;19.25;100.00;97434.50;5027935;28;20029;-36
2023/08/12 04:37:43;;;;;;;5.57;3.97;;;19.40;99.90;;;19.16;100.00;97430.69;5028502;28;20134;-36
2023/08/12 04:40:09;;;;;;;5.03;3.70;;;19.30;99.90;;;19.20;100.00;97428.63;5035204;28;20100;-36
2023/08/12 04:42:35;;;;;;;8.93;4.10;;;19.30;99.90;;;19.21;100.00;97425.84;5029920;28;20203;-36
2023/08/12 04:45:00;;;;;;;6.60;3.88;;;19.30;99.90;;;19.23;100.00;97426.59;5029128;28;20135;-37
2023/08/12 04:47:26;;;;;;;6.95;4.50;;;19.30;99.90;;;19.26;100.00;97434.41;5026428;28;20026;-37
2023/08/12 04:49:52;;;;;;;4.38;3.97;;;19.30;99.90;;;19.28;100.00;97423.59;5037336;28;20112;-36
2023/08/12 04:52:18;;;;;;;4.47;3.60;;;19.30;99.90;;;19.15;100.00;97407.59;5033117;28;20036;-36
2023/08/12 04:54:44;;;;;;;7.22;4.03;;;19.40;99.90;;;19.32;100.00;97425.09;5032755;28;20036;-36
2023/08/12 04:57:10;;;;;;;4.53;3.25;;;19.40;99.90;;;19.38;100.00;97434.47;5034324;28;20504;-36
2023/08/12 04:59:35;;;;;;;4.50;3.20;;;19.50;99.90;;;19.44;100.00;97431.38;5035926;28;20059;-36
2023/08/12 05:02:02;;;;;;;5.03;3.70;;;19.50;99.90;;;19.46;100.00;97421.44;5035125;28;20025;-36
2023/08/12 05:04:27;;;;;;;3.65;3.03;;;19.50;99.90;;;19.52;100.00;97429.00;5035964;28;20056;-36
2023/08/12 05:06:53;;;;;;;5.60;3.80;;;19.60;99.90;;;19.56;100.00;97421.59;5032239;28;20021;-36
2023/08/12 05:09:19;;;;;;;6.60;3.65;;;19.60;99.90;;;19.63;100.00;97418.38;5038628;28;20469;-36
2023/08/12 05:11:44;;;;;;;4.35;3.45;;;19.70;99.90;;;19.65;100.00;97420.94;5031846;28;20033;-36
2023/08/12 05:14:10;;;;;;;4.35;3.60;;;19.80;99.90;;;19.70;100.00;97418.75;5035199;28;20032;-36
2023/08/12 05:16:36;;;;;;;6.38;4.50;;;19.80;99.90;;;19.70;100.00;97413.41;5034362;28;20033;-36
2023/08/12 05:19:01;;;;;;;6.10;4.13;;;19.80;99.90;;;19.74;100.00;97412.28;5030976;28;20602;-36
2023/08/12 05:21:27;;;;;;;5.35;3.97;;;19.80;99.90;;;19.78;100.00;97427.13;5034663;28;20078;-36
2023/08/12 05:23:53;;;;;;;4.70;3.50;;;19.90;99.90;;;19.80;100.00;97424.34;5034069;28;20396;-36
2023/08/12 05:26:20;;;;;;;5.63;3.90;;;19.90;99.90;;;19.82;100.00;97438.44;5031030;28;20513;-36
2023/08/12 05:28:45;;;;;;;6.00;4.38;;;19.80;99.90;;;19.82;100.00;97433.94;5031917;28;20537;-36
2023/08/12 05:31:11;;;;;;;4.75;4.25;;;19.90;99.90;;;19.85;100.00;97440.91;5029212;28;20104;-37
2023/08/12 05:33:37;;;;;;;6.07;4.30;;;19.90;99.90;;;19.88;100.00;97446.00;5024939;28;20243;-36
2023/08/12 05:36:03;;;;;;;5.18;4.25;;;20.00;99.90;;;19.92;100.00;97433.25;5017138;28;20040;-36
2023/08/12 05:38:29;;;;;;;9.18;4.80;;;20.00;99.90;;;19.91;100.00;97429.72;5027849;28;20034;-36
2023/08/12 05:40:54;;;;;;;6.90;3.90;;;20.00;99.90;;;19.88;100.00;97427.28;5026452;28;20485;-36
2023/08/12 05:43:20;;;;;;;5.70;4.30;;;20.00;99.90;;;19.84;100.00;97420.44;5032732;28;20439;-36
2023/08/12 05:45:46;;;;;;;6.18;4.47;;;19.90;99.90;;;19.79;100.00;97417.25;5036074;28;20033;-36
2023/08/12 05:48:11;;;;;;;5.07;4.07;;;19.90;99.90;;;19.71;100.00;97407.09;5036241;28;20029;-36
2023/08/12 05:50:37;;;;;;;4.22;3.83;;;19.80;99.90;;;19.75;100.00;97423.81;5034910;28;20056;-36
2023/08/12 05:53:03;;;;;;;5.93;4.43;;;19.80;99.90;;;19.77;100.00;97424.56;5035861;28;20408;-36
2023/08/12 05:55:29;;;;;;;4.53;4.00;;;19.80;99.90;;;19.72;100.00;97414.19;5032452;28;20040;-36
2023/08/12 05:57:54;;;;;;;6.97;4.30;;;19.90;99.90;;;19.78;100.00;97432.47;5037591;28;20110;-36
2023/08/12 06:00:20;;;;;;;6.03;4.30;;;19.90;99.90;;;19.84;100.00;97437.34;5035953;28;20083;-36
2023/08/12 06:02:46;;;;;;;5.55;4.40;;;19.90;99.90;;;19.89;100.00;97422.81;5038459;28;20084;-36
2023/08/12 06:05:11;;;;;;;5.10;3.90;;;20.00;99.90;;;19.96;100.00;97424.91;5034319;28;20037;-36
2023/08/12 06:07:37;;;;;;;4.75;4.10;;;20.00;99.90;;;20.01;100.00;97435.28;5028024;28;20056;-36
2023/08/12 06:10:03;;;;;;;7.65;5.28;;;20.10;99.90;;;20.01;100.00;97436.13;5042222;28;20789;-36
2023/08/12 06:12:29;;;;;;;8.07;4.63;;;20.10;99.90;;;20.07;100.00;97434.81;5029737;28;20219;-36
2023/08/12 06:14:55;;;;;;;7.43;5.13;;;20.20;99.90;;;20.14;100.00;97435.22;5035367;28;20063;-36
2023/08/12 06:17:20;;;;;;;5.95;4.60;;;20.20;99.90;;;20.16;100.00;97422.56;5027396;28;20544;-36
2023/08/12 06:19:46;;;;;;;6.28;5.10;;;20.20;99.90;;;20.18;100.00;97412.56;5025774;28;20037;-36
2023/08/12 06:22:12;;;;;;;7.65;4.43;;;20.20;99.90;;;20.24;100.00;97409.41;5027355;28;20517;-36
2023/08/12 06:24:37;;;;;;;5.00;4.13;;;20.30;99.90;;;20.34;100.00;97412.25;5027428;28;20025;-36
2023/08/12 06:27:03;;;;;;;5.03;4.43;;;20.40;99.90;;;20.43;100.00;97402.69;5022579;28;20036;-36
2023/08/12 06:29:29;;;;;;;4.68;4.03;;;20.50;99.90;;;20.45;100.00;97396.22;5026513;28;20146;-36
2023/08/12 06:31:54;;;;;;;5.38;4.15;;;20.50;99.90;;;20.58;100.00;97405.03;5026831;28;20029;-36
2023/08/12 06:34:20;;;;;;;5.18;4.55;;;20.60;99.90;;;20.69;100.00;97408.72;5031244;28;20078;-37
2023/08/12 06:36:46;;;;;;;4.95;4.45;;;20.70;99.90;;;20.75;100.00;97409.09;5030041;28;20059;-36
2023/08/12 06:39:12;;;;;;;5.47;3.95;;;20.80;99.90;;;20.90;100.00;97409.69;5033974;28;20021;-36
2023/08/12 06:41:37;;;;;;;4.53;3.88;;;21.00;99.90;;;21.01;100.00;97416.91;5040849;28;20021;-36
2023/08/12 06:44:04;;;;;;;5.00;4.15;;;21.00;99.90;;;21.13;100.00;97420.44;5031193;28;20037;-36
2023/08/12 06:46:30;;;;;;;4.88;3.70;;;21.20;99.90;;;21.19;100.00;97417.25;5027457;28;20462;-36
2023/08/12 06:48:57;;;;;;;4.13;3.28;;;21.30;99.90;;;21.36;100.00;97419.44;5030513;28;20029;-36
2023/08/12 06:51:23;;;;;;;5.57;4.70;;;21.40;99.90;;;21.53;100.00;97420.81;5030794;28;20053;-36
2023/08/12 06:53:48;;;;;;;7.38;4.40;;;21.60;99.90;;;21.79;100.00;97422.34;5029092;28;20372;-37
2023/08/12 06:56:14;;;;;;;5.57;4.63;;;21.80;99.90;;;21.94;100.00;97402.25;5032509;28;20035;-37
2023/08/12 06:58:40;;;;;;;9.77;4.82;;;22.10;99.90;;;22.24;100.00;97419.50;5031211;28;20033;-36
2023/08/12 07:01:05;;;;;;;4.82;3.88;;;22.20;99.90;;;22.43;100.00;97425.03;5027150;28;20253;-36
2023/08/12 07:03:32;;;;;;;6.00;4.22;;;22.40;99.90;;;22.62;100.00;97418.94;5029317;28;20083;-36
2023/08/12 07:05:58;;;;;;;5.00;4.50;;;22.60;99.90;;;22.66;100.00;97420.38;5034647;28;20029;-36
2023/08/12 07:08:24;;;;;;;5.25;4.38;;;22.70;99.90;;;22.70;100.00;97418.25;5028197;28;20678;-36
2023/08/12 07:10:49;;;;;;;6.18;4.20;;;22.70;99.90;;;22.78;100.00;97418.47;5020577;28;20102;-36
2023/08/12 07:13:15;;;;;;;4.93;4.35;;;22.80;99.90;;;22.96;100.00;97423.25;5034825;28;20057;-36
2023/08/12 07:15:41;;;;;;;5.05;4.32;;;22.90;99.90;;;23.12;100.00;97417.41;5033817;28;20036;-37
2023/08/12 07:18:06;;;;;;;4.55;3.95;;;23.10;99.90;;;23.20;100.00;97423.81;5030391;28;20040;-36
2023/08/12 07:20:32;;;;;;;6.38;4.10;;;23.10;99.90;;;23.20;100.00;97425.63;5029346;28;20032;-37
2023/08/12 07:22:58;;;;;;;5.18;3.78;;;23.20;99.90;;;23.08;100.00;97407.88;5030170;28;20439;-36
2023/08/12 07:25:24;;;;;;;5.45;4.00;;;23.10;99.90;;;23.01;100.00;97418.31;5029460;28;20041;-37
2023/08/12 07:27:49;;;;;;;4.03;3.63;;;23.00;99.90;;;23.13;100.00;97424.47;5026284;28;20029;-36
2023/08/12 07:30:15;;;;;;;5.47;4.40;;;23.00;99.90;;;23.41;100.00;97430.97;5026311;28;20028;-36
2023/08/12 07:32:41;;;;;;;5.30;4.20;;;23.30;99.90;;;23.76;100.00;97427.81;5028369;28;20043;-37
2023/08/12 07:35:07;;;;;;;5.13;4.22;;;23.60;99.90;;;24.11;100.00;97431.84;5029220;28;20047;-37
2023/08/12 07:37:33;;;;;;;4.60;3.92;;;23.80;99.90;;;24.40;100.00;97434.53;5031590;28;20749;-37
2023/08/12 07:39:59;;;;;;;4.28;3.72;;;24.10;99.90;;;24.61;100.00;97432.72;5030396;28;20111;-37
2023/08/12 07:42:24;;;;;;;5.78;4.43;;;24.30;99.90;;;24.77;100.00;97422.19;5029143;28;20485;-37
2023/08/12 07:44:50;;;;;;;4.43;3.90;;;24.40;99.90;;;24.83;100.00;97426.97;5028567;28;20040;-37
2023/08/12 07:47:16;;;;;;;5.13;4.40;;;24.60;99.90;;;24.79;100.00;97430.97;5032206;28;20163;-37
2023/08/12 07:49:43;;;;;;;5.63;4.30;;;24.60;99.90;;;24.62;100.00;97408.31;5034662;28;20021;-37
2023/08/12 07:52:09;;;;;;;4.28;3.88;;;24.50;99.90;;;24.65;100.00;97429.56;5037749;28;20064;-37
2023/08/12 07:54:35;;;;;;;6.57;4.00;;;24.50;99.90;;;24.58;100.00;97415.84;5038322;28;20021;-37
2023/08/12 07:57:01;;;;;;;5.60;4.05;;;24.50;99.90;;;24.75;100.00;97425.03;5040169;28;20024;-37
2023/08/12 07:59:26;;;;;;;4.93;4.18;;;24.50;99.90;;;24.78;100.00;97423.88;5039425;28;20029;-37
2023/08/12 08:01:52;;;;;;;5.47;3.63;;;24.60;99.90;;;24.83;100.00;97418.06;5027769;28;20009;-37
2023/08/12 08:04:18;;;;;;;6.10;4.68;;;24.60;99.90;;;24.82;100.00;97427.13;5028388;28;20025;-37
2023/08/12 08:06:44;;;;;;;5.38;3.90;;;24.70;99.90;;;24.85;100.00;97425.00;5024571;28;20455;-37
2023/08/12 08:09:10;;;;;;;5.15;4.20;;;24.70;99.90;;;24.94;100.00;97423.25;5028867;28;20039;-37
2023/08/12 08:11:36;;;;;;;7.57;4.03;;;24.80;99.90;;;24.86;100.00;97407.81;5021852;28;20032;-37
2023/08/12 08:14:02;;;;;;;4.88;3.78;;;24.80;99.90;;;25.01;100.00;97421.69;5023832;28;20070;-37
2023/08/12 08:16:28;;;;;;;4.90;4.50;;;24.90;99.90;;;25.08;100.00;97422.78;5026064;28;20453;-37
2023/08/12 08:18:53;;;;;;;6.18;4.38;;;25.00;99.90;;;25.20;100.00;97415.38;5027736;28;20328;-36
2023/08/12 08:21:19;;;;;;;6.85;4.53;;;25.10;99.90;;;25.42;100.00;97410.63;5027487;28;20471;-37
2023/08/12 08:23:46;;;;;;;5.43;4.47;;;25.30;99.90;;;25.59;99.11;97406.25;5024803;28;20396;-37
2023/08/12 08:26:13;;;;;;;5.13;4.53;;;25.50;99.90;;;25.77;99.21;97411.69;5028732;28;20041;-37
2023/08/12 08:28:38;;;;;;;6.07;4.32;;;25.60;99.90;;;25.80;98.97;97408.69;5032122;28;20021;-37
2023/08/12 08:31:04;;;;;;;5.40;4.53;;;25.60;99.90;;;25.88;99.26;97411.50;5036530;28;20024;-37
2023/08/12 08:33:30;;;;;;;6.53;4.20;;;25.70;99.90;;;25.97;97.01;97405.19;5035663;28;20608;-37
2023/08/12 08:35:56;;;;;;;5.13;4.35;;;25.80;99.90;;;26.08;95.40;97407.66;5032922;28;20041;-37
2023/08/12 08:38:21;;;;;;;5.55;4.90;;;25.90;99.90;;;26.06;90.38;97406.97;5034942;28;20048;-37
2023/08/12 08:40:50;;;;;;;5.72;4.75;;;25.90;99.90;;;26.13;90.70;97417.16;5025769;28;20056;-37
2023/08/12 08:43:22;;;;;;;4.68;4.28;;;26.00;99.90;;;26.01;90.75;97416.56;5032014;28;20033;-37
2023/08/12 08:45:52;;;;;;;5.30;4.57;;;25.80;99.90;;;25.96;89.48;97425.09;5033557;28;20116;-37
2023/08/12 08:48:19;;;;;;;5.20;4.70;;;25.80;99.90;;;25.81;88.82;97432.00;5029931;28;20025;-38
2023/08/12 08:50:45;;;;;;;6.45;4.82;;;25.70;99.90;;;25.63;91.12;97424.72;5024564;28;20128;-36
2023/08/12 08:53:12;;;;;;;5.03;4.53;;;25.50;99.90;;;25.72;92.92;97420.28;5028112;28;20437;-37
2023/08/12 08:55:41;;;;;;;5.68;4.20;;;25.60;99.90;;;25.87;95.13;97424.13;5026340;28;20036;-36
2023/08/12 08:58:06;;;;;;;7.03;4.63;;;25.70;99.90;;;25.97;93.18;97409.72;5029168;28;20036;-36
2023/08/12 09:00:32;;;;;;;4.93;4.15;;;25.90;99.90;;;26.16;93.68;97415.00;5025002;28;20424;-36
2023/08/12 09:02:58;;;;;;;6.55;4.72;;;26.00;99.90;;;26.32;88.57;97419.72;5022599;28;20060;-36
2023/08/12 09:05:26;;;;;;;6.18;4.78;;;26.20;99.90;;;26.49;93.88;97412.59;5014843;28;20051;-36
2023/08/12 09:07:54;;;;;;;5.78;4.82;;;26.40;99.90;;;26.64;82.96;97408.34;5025020;28;20036;-36
2023/08/12 09:10:21;;;;;;;4.93;4.43;;;26.50;99.90;;;26.85;82.50;97415.25;5027148;28;20025;-36
2023/08/12 09:12:47;;;;;;;6.05;3.85;;;26.70;99.90;;;27.00;82.49;97419.06;5028404;28;20035;-36
2023/08/12 09:15:13;;;;;;;4.40;3.85;;;26.80;99.90;;;27.14;79.74;97419.50;5028959;28;20028;-36
2023/08/12 09:17:39;;;;;;;5.28;4.10;;;27.00;99.90;;;27.09;81.24;97417.25;5027854;28;20040;-36
2023/08/12 09:20:11;;;;;;;5.50;4.45;;;27.00;99.90;;;27.10;75.67;97413.56;5027642;28;20404;-36
2023/08/12 09:22:38;;;;;;;6.97;4.45;;;27.00;99.90;;;27.21;88.19;97412.44;5029935;28;20249;-36
2023/08/12 09:25:04;;;;;;;10.93;6.40;;;27.00;99.90;;;27.34;77.44;97412.00;5028348;28;20405;-36
2023/08/12 09:27:31;;;;;;;10.40;6.55;;;27.10;99.90;;;27.45;77.59;97419.00;5028021;28;20032;-36
2023/08/12 09:29:58;;;;;;;6.72;4.80;;;27.30;99.90;;;27.54;74.91;97416.16;5029828;28;20148;-36
2023/08/12 09:32:24;;;;;;;6.03;4.50;;;27.40;99.90;;;27.66;74.07;97413.16;5028011;28;20127;-37
2023/08/12 09:34:53;;;;;;;5.75;4.10;;;27.50;99.90;;;27.79;79.81;97408.09;5026866;28;20492;-37
2023/08/12 09:37:21;;;;;;;7.22;5.53;;;27.60;99.90;;;27.92;69.04;97407.66;5030436;28;20047;-36
2023/08/12 09:39:48;;;;;;;5.95;4.60;;;27.80;99.90;;;27.92;68.17;97394.09;5027996;28;20564;-36
2023/08/12 09:42:15;;;;;;;6.57;4.45;;;27.90;99.90;;;28.01;67.22;97405.81;5034185;28;20029;-36
2023/08/12 09:44:42;;;;;;;7.68;4.68;;;27.90;99.90;;;28.16;68.91;97398.75;5033719;28;20052;-36
2023/08/12 09:47:08;;;;;;;6.85;4.55;;;28.00;99.90;;;28.33;70.95;97384.16;5024731;28;20478;-36
2023/08/12 09:49:35;;;;;;;7.10;4.28;;;28.30;99.90;;;28.65;69.00;97390.63;5034194;28;20021;-36
2023/08/12 09:52:02;;;;;;;5.78;3.72;;;28.60;99.90;;;28.85;57.82;97388.38;5030735;28;20029;-36
2023/08/12 09:54:31;;;;;;;6.20;3.95;;;28.80;99.90;;;29.08;60.72;97390.38;5028379;28;20433;-37
2023/08/12 09:57:00;;;;;;;6.03;3.45;;;29.00;99.90;;;29.30;54.81;97380.66;5028617;28;20329;-36
2023/08/12 09:59:35;;;;;;;3.92;3.47;;;29.20;99.90;;;29.58;57.54;97388.38;5025427;28;20562;-36
2023/08/12 10:02:07;;;;;;;4.65;3.50;;;29.40;99.90;;;29.40;63.17;97362.28;5029391;28;20044;-36
2023/08/12 10:04:42;;;;;;;6.30;3.90;;;29.40;99.90;;;29.32;63.82;97373.16;5023949;28;20044;-37
2023/08/12 10:07:12;;;;;;;6.55;3.90;;;29.30;99.90;;;29.08;59.98;97365.94;5033771;28;20175;-37
2023/08/12 10:09:39;;;;;;;4.20;3.20;;;29.00;99.90;;;28.86;66.41;97365.66;5051370;28;20024;-36